createdAt,value
2018-09-03T00:00:16.997Z,97.24
2018-09-03T00:00:57.504Z,97.24
2018-09-03T00:01:38.027Z,97.04
2018-09-03T00:02:18.545Z,97.14
2018-09-03T00:02:59.073Z,97.14
2018-09-03T00:03:39.604Z,96.94
2018-09-03T00:04:20.123Z,97.42
2018-09-03T00:05:00.633Z,97.47
2018-09-03T00:05:41.147Z,97.52
2018-09-03T00:06:21.670Z,97.24
2018-09-03T00:07:02.176Z,97.14
2018-09-03T00:07:42.737Z,97.24
2018-09-03T00:09:35.800Z,97.14
2018-09-03T00:10:16.324Z,97.42
2018-09-03T00:10:56.855Z,96.66
2018-09-03T00:11:37.381Z,96.94
2018-09-03T00:12:17.895Z,97.62
2018-09-03T00:12:58.406Z,97.91
2018-09-03T00:13:38.966Z,97.04
2018-09-03T00:14:19.506Z,97.62
2018-09-03T00:15:00.028Z,97.71
2018-09-03T00:15:40.539Z,98.05
2018-09-03T00:16:21.059Z,97.96
2018-09-03T00:17:01.686Z,98
2018-09-03T00:17:42.204Z,97.81
2018-09-03T00:18:22.715Z,97.76
2018-09-03T00:19:03.229Z,97.71
2018-09-03T00:19:43.751Z,98
2018-09-03T00:20:24.268Z,98.29
2018-09-03T00:21:04.777Z,97.52
2018-09-03T00:21:45.291Z,97.14
2018-09-03T00:23:43.683Z,97.62
2018-09-03T00:24:24.158Z,97.81
2018-09-03T00:25:04.684Z,97.52
2018-09-03T00:25:45.210Z,97.62
2018-09-03T00:27:43.629Z,97.62
2018-09-03T00:28:24.132Z,97.42
2018-09-03T00:29:04.655Z,97.42
2018-09-03T00:29:45.184Z,97.52
2018-09-03T00:30:26.634Z,97.52
2018-09-03T00:31:07.146Z,97.91
2018-09-03T00:31:47.738Z,97.52
2018-09-03T00:32:28.254Z,97.71
2018-09-03T00:33:08.775Z,97.42
2018-09-03T00:33:49.286Z,97.42
2018-09-03T00:34:29.795Z,97.42
2018-09-03T00:35:10.326Z,97.62
2018-09-03T00:35:50.866Z,97.42
2018-09-03T00:36:31.383Z,97.52
2018-09-03T00:37:11.903Z,97.42
2018-09-03T00:37:52.435Z,97.81
2018-09-03T00:38:32.961Z,98
2018-09-03T00:39:13.460Z,98.1
2018-09-03T00:39:53.978Z,97.91
2018-09-03T00:40:34.513Z,97.62
2018-09-03T00:41:15.030Z,98.1
2018-09-03T00:41:55.553Z,98.29
2018-09-03T00:42:36.089Z,97.52
2018-09-03T00:43:16.640Z,97.52
2018-09-03T00:43:57.150Z,97.62
2018-09-03T00:44:37.671Z,97.52
2018-09-03T00:45:18.184Z,97.42
2018-09-03T00:45:58.711Z,97.52
2018-09-03T00:46:39.213Z,97.52
2018-09-03T00:47:19.735Z,97.91
2018-09-03T00:48:00.263Z,97.91
2018-09-03T00:48:40.777Z,98
2018-09-03T00:49:21.283Z,98
2018-09-03T00:50:01.815Z,97.91
2018-09-03T00:50:42.330Z,97.71
2018-09-03T00:51:22.847Z,97.28
2018-09-03T00:52:03.420Z,97.62
2018-09-03T00:52:43.940Z,97.71
2018-09-03T00:53:24.453Z,97.52
2018-09-03T00:54:04.966Z,98.1
2018-09-03T00:54:45.515Z,98
2018-09-03T00:55:26.031Z,98.1
2018-09-03T00:56:06.531Z,97.86
2018-09-03T00:56:47.040Z,97.81
2018-09-03T00:57:27.552Z,97.91
2018-09-03T00:58:08.067Z,97.71
2018-09-03T00:58:48.581Z,97.52
2018-09-03T00:59:29.102Z,97.91
2018-09-03T01:00:09.622Z,97.52
2018-09-03T01:00:50.947Z,97.04
2018-09-03T01:01:31.458Z,98
2018-09-03T01:02:11.980Z,97.42
2018-09-03T01:02:52.505Z,97.62
2018-09-03T01:03:33.029Z,97.04
2018-09-03T01:04:13.559Z,97.33
2018-09-03T01:04:54.074Z,97.62
2018-09-03T01:05:34.596Z,97.42
2018-09-03T01:06:15.116Z,97.33
2018-09-03T01:06:55.630Z,97.14
2018-09-03T01:07:36.145Z,97.14
2018-09-03T01:08:16.668Z,97.52
2018-09-03T01:08:57.178Z,97.14
2018-09-03T01:09:37.702Z,97.14
2018-09-03T01:10:18.210Z,97.71
2018-09-03T01:10:58.735Z,97.47
2018-09-03T01:11:39.256Z,97.47
2018-09-03T01:12:19.777Z,97.96
2018-09-03T01:13:00.298Z,98.14
2018-09-03T01:13:40.813Z,98.24
2018-09-03T01:14:21.336Z,98.24
2018-09-03T01:15:01.865Z,98.14
2018-09-03T01:15:42.390Z,98.72
2018-09-03T01:16:22.915Z,98.34
2018-09-03T01:17:03.431Z,98.63
2018-09-03T01:17:43.944Z,98.72
2018-09-03T01:18:24.554Z,98.82
2018-09-03T01:19:05.082Z,98.44
2018-09-03T01:19:45.602Z,98.34
2018-09-03T01:20:26.131Z,98.34
2018-09-03T01:21:06.649Z,98.63
2018-09-03T01:21:47.857Z,98.34
2018-09-03T01:22:28.375Z,98.53
2018-09-03T01:23:08.908Z,98.91
2018-09-03T01:23:49.423Z,99.11
2018-09-03T01:24:29.941Z,98.44
2018-09-03T01:25:10.463Z,98.53
2018-09-03T01:25:50.983Z,98.44
2018-09-03T01:26:31.496Z,98.63
2018-09-03T01:27:12.020Z,98.53
2018-09-03T01:27:52.553Z,98.44
2018-09-03T01:28:33.075Z,98.44
2018-09-03T01:29:13.598Z,98.82
2018-09-03T01:29:54.113Z,98.82
2018-09-03T01:30:34.693Z,99.01
2018-09-03T01:31:15.219Z,98.91
2018-09-03T01:31:55.746Z,98.72
2018-09-03T01:32:36.246Z,98.72
2018-09-03T01:33:16.757Z,98.82
2018-09-03T01:33:57.280Z,98.82
2018-09-03T01:34:37.795Z,99.01
2018-09-03T01:35:18.432Z,99.59
2018-09-03T01:35:58.952Z,98.82
2018-09-03T01:36:39.471Z,98.82
2018-09-03T01:37:19.985Z,99.01
2018-09-03T01:38:00.512Z,99.21
2018-09-03T01:38:41.025Z,99.01
2018-09-03T01:39:21.547Z,99.01
2018-09-03T01:40:02.071Z,98.72
2018-09-03T01:40:42.587Z,99.3
2018-09-03T01:41:23.119Z,99.21
2018-09-03T01:42:03.635Z,98.82
2018-09-03T01:42:44.161Z,99.4
2018-09-03T01:43:24.681Z,98.91
2018-09-03T01:44:05.204Z,99.01
2018-09-03T01:44:45.784Z,98.82
2018-09-03T01:45:26.254Z,99.01
2018-09-03T01:46:06.769Z,98.63
2018-09-03T01:46:47.280Z,98.91
2018-09-03T01:47:27.807Z,98.91
2018-09-03T01:48:08.332Z,98.91
2018-09-03T01:48:48.837Z,98.82
2018-09-03T01:49:29.363Z,98.91
2018-09-03T01:50:09.886Z,98.91
2018-09-03T01:50:50.401Z,98.72
2018-09-03T01:51:30.929Z,98.91
2018-09-03T01:52:11.454Z,99.01
2018-09-03T01:52:51.979Z,99.21
2018-09-03T01:53:32.501Z,99.11
2018-09-03T01:54:13.018Z,98.63
2018-09-03T01:54:53.546Z,99.21
2018-09-03T01:55:34.067Z,99.21
2018-09-03T01:56:14.577Z,99.21
2018-09-03T01:56:55.085Z,99.49
2018-09-03T01:57:35.605Z,99.3
2018-09-03T01:58:16.123Z,99.4
2018-09-03T01:58:56.639Z,99.4
2018-09-03T01:59:37.150Z,99.11
2018-09-03T02:00:17.689Z,98.44
2018-09-03T02:00:58.195Z,98.82
2018-09-03T02:01:38.710Z,98.82
2018-09-03T02:02:19.226Z,98.91
2018-09-03T02:02:59.762Z,98.91
2018-09-03T02:03:40.270Z,99.11
2018-09-03T02:04:20.796Z,98.82
2018-09-03T02:05:01.304Z,99.01
2018-09-03T02:05:41.825Z,98.91
2018-09-03T02:06:22.351Z,99.11
2018-09-03T02:07:02.866Z,98.91
2018-09-03T02:07:43.405Z,99.11
2018-09-03T02:08:23.922Z,99.01
2018-09-03T02:09:04.441Z,98.91
2018-09-03T02:09:44.979Z,99.3
2018-09-03T02:10:25.468Z,98.82
2018-09-03T02:11:05.984Z,99.21
2018-09-03T02:11:46.517Z,99.59
2018-09-03T02:12:27.051Z,99.78
2018-09-03T02:13:07.569Z,99.49
2018-09-03T02:13:48.071Z,99.49
2018-09-03T02:14:28.587Z,99.78
2018-09-03T02:15:09.100Z,99.98
2018-09-03T02:15:49.622Z,99.35
2018-09-03T02:16:30.134Z,99.88
2018-09-03T02:17:10.658Z,99.68
2018-09-03T02:17:51.172Z,99.44
2018-09-03T02:18:31.705Z,99.98
2018-09-03T02:19:12.321Z,99.73
2018-09-03T02:19:52.837Z,99.49
2018-09-03T02:20:33.366Z,99.3
2018-09-03T02:21:13.873Z,99.54
2018-09-03T02:21:54.405Z,99.83
2018-09-03T02:22:34.914Z,99.54
2018-09-03T02:23:15.425Z,99.73
2018-09-03T02:23:55.946Z,99.88
2018-09-03T02:24:36.471Z,99.68
2018-09-03T02:25:16.997Z,99.78
2018-09-03T02:25:57.506Z,99.99
2018-09-03T02:26:38.043Z,99.99
2018-09-03T02:27:18.551Z,99.99
2018-09-03T02:27:59.062Z,99.99
2018-09-03T02:28:39.585Z,99.78
2018-09-03T02:29:20.092Z,99.88
2018-09-03T02:30:00.620Z,99.78
2018-09-03T02:30:41.141Z,99.99
2018-09-03T02:31:21.650Z,99.99
2018-09-03T02:32:02.167Z,99.59
2018-09-03T02:32:42.693Z,99.68
2018-09-03T02:33:23.354Z,99.4
2018-09-03T02:34:03.870Z,99.68
2018-09-03T02:34:44.384Z,99.59
2018-09-03T02:35:24.941Z,99.98
2018-09-03T02:36:05.421Z,99.4
2018-09-03T02:36:45.930Z,99.4
2018-09-03T02:37:26.442Z,99.59
2018-09-03T02:38:06.971Z,99.11
2018-09-03T02:38:47.491Z,99.4
2018-09-03T02:39:28.003Z,99.11
2018-09-03T02:40:08.537Z,99.21
2018-09-03T02:40:49.071Z,99.3
2018-09-03T02:41:29.594Z,99.49
2018-09-03T02:42:10.189Z,99.68
2018-09-03T02:42:50.696Z,98.91
2018-09-03T02:43:31.214Z,99.4
2018-09-03T02:44:11.733Z,99.78
2018-09-03T02:44:52.247Z,98.82
2018-09-03T02:45:32.774Z,99.01
2018-09-03T02:46:13.304Z,98.91
2018-09-03T02:46:53.823Z,99.49
2018-09-03T02:47:34.349Z,99.4
2018-09-03T02:48:14.863Z,99.3
2018-09-03T02:48:55.383Z,99.99
2018-09-03T02:49:35.903Z,99.88
2018-09-03T02:50:16.429Z,99.3
2018-09-03T02:50:56.997Z,99.49
2018-09-03T02:51:37.509Z,99.98
2018-09-03T02:52:18.031Z,99.3
2018-09-03T02:52:58.548Z,99.78
2018-09-03T02:53:39.069Z,99.78
2018-09-03T02:54:19.596Z,99.99
2018-09-03T02:55:00.118Z,99.3
2018-09-03T02:55:40.630Z,99.68
2018-09-03T02:56:21.152Z,99.99
2018-09-03T02:57:01.692Z,99.78
2018-09-03T02:57:42.216Z,99.78
2018-09-03T02:58:22.743Z,99.88
2018-09-03T02:59:03.246Z,99.68
2018-09-03T02:59:43.770Z,99.78
2018-09-03T03:00:24.298Z,99.49
2018-09-03T03:01:04.818Z,99.4
2018-09-03T03:01:45.345Z,99.59
2018-09-03T03:02:25.841Z,99.3
2018-09-03T03:03:06.357Z,99.59
2018-09-03T03:03:46.884Z,99.49
2018-09-03T03:04:27.398Z,99.11
2018-09-03T03:05:07.910Z,99.49
2018-09-03T03:05:48.435Z,99.98
2018-09-03T03:06:28.957Z,99.49
2018-09-03T03:07:09.484Z,99.73
2018-09-03T03:07:50.004Z,99.4
2018-09-03T03:08:30.590Z,99.49
2018-09-03T03:09:11.114Z,99.98
2018-09-03T03:09:51.641Z,99.59
2018-09-03T03:10:32.145Z,99.88
2018-09-03T03:11:12.660Z,99.99
2018-09-03T03:11:53.246Z,99.99
2018-09-03T03:12:33.684Z,99.99
2018-09-03T03:13:14.209Z,99.99
2018-09-03T03:13:54.730Z,99.99
2018-09-03T03:14:35.258Z,99.99
2018-09-03T03:15:15.775Z,99.99
2018-09-03T03:15:56.321Z,99.99
2018-09-03T03:16:36.804Z,99.99
2018-09-03T03:17:17.317Z,99.99
2018-09-03T03:17:57.834Z,99.99
2018-09-03T03:18:38.362Z,99.99
2018-09-03T03:19:18.881Z,99.99
2018-09-03T03:19:59.401Z,99.99
2018-09-03T03:20:39.916Z,99.99
2018-09-03T03:21:20.496Z,99.99
2018-09-03T03:22:01.019Z,99.99
2018-09-03T03:22:41.559Z,99.99
2018-09-03T03:23:22.057Z,99.99
2018-09-03T03:24:02.581Z,99.99
2018-09-03T03:24:43.099Z,99.99
2018-09-03T03:25:23.637Z,99.99
2018-09-03T03:26:04.163Z,99.99
2018-09-03T03:26:44.689Z,99.99
2018-09-03T03:27:25.255Z,99.99
2018-09-03T03:28:05.760Z,99.99
2018-09-03T03:28:46.277Z,99.99
2018-09-03T03:29:26.797Z,99.99
2018-09-03T03:30:07.326Z,99.99
2018-09-03T03:30:47.840Z,99.99
2018-09-03T03:31:28.440Z,99.99
2018-09-03T03:32:08.974Z,99.99
2018-09-03T03:32:49.490Z,99.99
2018-09-03T03:33:30.005Z,99.99
2018-09-03T03:34:10.577Z,99.99
2018-09-03T03:34:51.106Z,99.99
2018-09-03T03:35:31.631Z,99.99
2018-09-03T03:36:12.166Z,99.99
2018-09-03T03:36:52.696Z,99.99
2018-09-03T03:37:33.207Z,99.99
2018-09-03T03:38:13.729Z,99.99
2018-09-03T03:38:54.256Z,99.99
2018-09-03T03:39:34.780Z,99.99
2018-09-03T03:40:15.298Z,99.99
2018-09-03T03:40:55.813Z,99.99
2018-09-03T03:41:36.324Z,99.99
2018-09-03T03:42:16.853Z,99.99
2018-09-03T03:42:57.376Z,99.99
2018-09-03T03:43:37.914Z,99.99
2018-09-03T03:44:18.403Z,99.99
2018-09-03T03:44:59.845Z,99.99
2018-09-03T03:45:39.506Z,99.99
2018-09-03T03:46:20.039Z,99.99
2018-09-03T03:47:00.573Z,99.99
2018-09-03T03:47:41.097Z,99.99
2018-09-03T03:48:21.622Z,99.99
2018-09-03T03:49:02.147Z,99.99
2018-09-03T03:49:42.657Z,99.99
2018-09-03T03:50:23.187Z,99.99
2018-09-03T03:51:03.700Z,99.99
2018-09-03T03:51:44.205Z,99.99
2018-09-03T03:52:24.879Z,99.99
2018-09-03T03:53:05.404Z,99.99
2018-09-03T03:53:45.903Z,99.99
2018-09-03T03:54:26.496Z,99.99
2018-09-03T03:55:07.043Z,99.99
2018-09-03T03:55:47.540Z,99.99
2018-09-03T03:56:28.082Z,99.99
2018-09-03T03:57:08.601Z,99.99
2018-09-03T03:57:49.111Z,99.99
2018-09-03T03:58:29.626Z,99.99
2018-09-03T03:59:10.149Z,99.99
2018-09-03T03:59:50.677Z,99.99
2018-09-03T04:00:31.182Z,99.99
2018-09-03T04:01:11.689Z,99.99
2018-09-03T04:01:52.213Z,99.99
2018-09-03T04:02:32.737Z,99.99
2018-09-03T04:03:13.261Z,99.99
2018-09-03T04:03:53.776Z,99.99
2018-09-03T04:04:34.311Z,99.99
2018-09-03T04:05:14.838Z,99.99
2018-09-03T04:05:55.354Z,99.99
2018-09-03T04:06:35.879Z,99.99
2018-09-03T04:07:16.443Z,99.99
2018-09-03T04:07:56.970Z,99.99
2018-09-03T04:08:37.483Z,99.99
2018-09-03T04:09:17.987Z,99.99
2018-09-03T04:09:58.511Z,99.99
2018-09-03T04:10:39.040Z,99.99
2018-09-03T04:11:19.549Z,99.99
2018-09-03T04:12:00.065Z,99.99
2018-09-03T04:12:40.648Z,99.99
2018-09-03T04:13:21.134Z,99.99
2018-09-03T04:14:01.766Z,99.99
2018-09-03T04:14:42.304Z,99.99
2018-09-03T04:15:22.832Z,99.99
2018-09-03T04:16:03.356Z,99.99
2018-09-03T04:16:43.884Z,99.99
2018-09-03T04:17:24.397Z,99.99
2018-09-03T04:18:04.931Z,99.99
2018-09-03T04:18:45.444Z,99.99
2018-09-03T04:19:25.967Z,99.99
2018-09-03T04:20:06.486Z,99.99
2018-09-03T04:20:47.001Z,99.99
2018-09-03T04:21:27.564Z,99.99
2018-09-03T04:22:08.088Z,99.99
2018-09-03T04:22:48.666Z,99.99
2018-09-03T04:23:29.283Z,99.99
2018-09-03T04:24:09.620Z,99.99
2018-09-03T04:24:50.143Z,99.99
2018-09-03T04:25:30.662Z,99.99
2018-09-03T04:26:11.202Z,99.99
2018-09-03T04:26:51.711Z,99.99
2018-09-03T04:27:32.234Z,99.99
2018-09-03T04:28:12.755Z,99.99
2018-09-03T04:28:53.466Z,99.99
2018-09-03T04:29:33.793Z,99.99
2018-09-03T04:30:14.308Z,99.99
2018-09-03T04:30:54.825Z,99.99
2018-09-03T04:31:35.360Z,99.99
2018-09-03T04:32:15.883Z,99.99
2018-09-03T04:32:56.392Z,99.99
2018-09-03T04:33:36.903Z,99.99
2018-09-03T04:34:17.419Z,99.99
2018-09-03T04:34:57.944Z,99.99
2018-09-03T04:35:38.462Z,99.99
2018-09-03T04:36:18.992Z,99.99
2018-09-03T04:36:59.512Z,99.99
2018-09-03T04:37:40.040Z,99.99
2018-09-03T04:38:20.556Z,99.99
2018-09-03T04:39:01.099Z,99.99
2018-09-03T04:39:41.613Z,99.99
2018-09-03T04:40:22.161Z,99.99
2018-09-03T04:41:02.694Z,99.99
2018-09-03T04:41:43.198Z,99.99
2018-09-03T04:42:23.717Z,99.99
2018-09-03T04:43:04.242Z,99.99
2018-09-03T04:43:44.759Z,99.99
2018-09-03T04:44:25.276Z,99.99
2018-09-03T04:45:05.806Z,99.99
2018-09-03T04:45:46.343Z,99.99
2018-09-03T04:46:26.861Z,99.99
2018-09-03T04:47:07.397Z,99.99
2018-09-03T04:47:47.911Z,99.99
2018-09-03T04:48:28.430Z,99.99
2018-09-03T04:49:08.949Z,99.99
2018-09-03T04:49:49.470Z,99.99
2018-09-03T04:50:30.176Z,99.99
2018-09-03T04:51:10.691Z,99.99
2018-09-03T04:51:51.211Z,99.99
2018-09-03T04:52:31.723Z,99.99
2018-09-03T04:53:12.229Z,99.99
2018-09-03T04:53:52.760Z,99.99
2018-09-03T04:54:33.364Z,99.99
2018-09-03T04:55:13.898Z,99.99
2018-09-03T04:55:54.354Z,99.99
2018-09-03T04:56:34.862Z,99.99
2018-09-03T04:57:15.399Z,99.99
2018-09-03T04:57:55.918Z,99.99
2018-09-03T04:58:36.437Z,99.99
2018-09-03T04:59:16.956Z,99.99
2018-09-03T04:59:57.475Z,99.99
2018-09-03T05:00:37.990Z,99.99
2018-09-03T05:01:18.509Z,99.99
2018-09-03T05:01:59.017Z,99.99
2018-09-03T05:02:39.538Z,99.99
2018-09-03T05:03:20.054Z,99.99
2018-09-03T05:04:00.639Z,99.99
2018-09-03T05:04:41.158Z,99.99
2018-09-03T05:05:21.698Z,99.99
2018-09-03T05:06:02.227Z,99.99
2018-09-03T05:06:42.697Z,99.99
2018-09-03T05:07:23.221Z,99.99
2018-09-03T05:08:03.750Z,99.99
2018-09-03T05:08:44.269Z,99.99
2018-09-03T05:09:24.800Z,99.99
2018-09-03T05:10:05.343Z,99.99
2018-09-03T05:10:45.856Z,99.99
2018-09-03T05:11:26.588Z,99.99
2018-09-03T05:12:07.164Z,99.99
2018-09-03T05:12:47.703Z,99.99
2018-09-03T05:13:28.219Z,99.99
2018-09-03T05:14:08.740Z,99.99
2018-09-03T05:14:49.258Z,99.99
2018-09-03T05:15:29.780Z,99.99
2018-09-03T05:16:10.298Z,99.99
2018-09-03T05:16:50.820Z,99.99
2018-09-03T05:17:31.328Z,99.99
2018-09-03T05:18:12.039Z,99.99
2018-09-03T05:18:52.569Z,99.99
2018-09-03T05:19:33.103Z,99.99
2018-09-03T05:20:13.617Z,99.99
2018-09-03T05:20:54.144Z,99.99
2018-09-03T05:21:34.664Z,99.99
2018-09-03T05:22:15.178Z,99.99
2018-09-03T05:22:55.717Z,99.99
2018-09-03T05:23:36.222Z,99.99
2018-09-03T05:24:16.777Z,99.99
2018-09-03T05:24:57.324Z,99.99
2018-09-03T05:25:38.230Z,99.99
2018-09-03T05:26:18.754Z,99.99
2018-09-03T05:26:59.474Z,99.99
2018-09-03T05:27:39.762Z,99.99
2018-09-03T05:28:20.265Z,99.99
2018-09-03T05:29:00.775Z,99.99
2018-09-03T05:29:41.343Z,99.99
2018-09-03T05:30:21.811Z,99.99
2018-09-03T05:31:02.380Z,99.99
2018-09-03T05:31:42.893Z,99.99
2018-09-03T05:32:23.412Z,99.99
2018-09-03T05:33:03.932Z,99.99
2018-09-03T05:33:44.447Z,99.99
2018-09-03T05:34:25.036Z,99.99
2018-09-03T05:35:05.565Z,99.99
2018-09-03T05:35:46.083Z,99.99
2018-09-03T05:36:26.791Z,99.99
2018-09-03T05:37:07.324Z,99.99
2018-09-03T05:37:47.879Z,99.99
2018-09-03T05:38:28.406Z,99.99
2018-09-03T05:39:08.968Z,99.99
2018-09-03T05:39:49.452Z,99.99
2018-09-03T05:40:30.101Z,99.99
2018-09-03T05:41:10.624Z,99.99
2018-09-03T05:41:51.135Z,99.99
2018-09-03T05:42:31.655Z,99.99
2018-09-03T05:43:12.315Z,99.99
2018-09-03T05:43:52.745Z,99.99
2018-09-03T05:44:33.240Z,99.99
2018-09-03T05:45:13.754Z,99.99
2018-09-03T05:45:54.291Z,99.99
2018-09-03T05:46:34.960Z,99.99
2018-09-03T05:47:15.436Z,99.99
2018-09-03T05:47:55.965Z,99.99
2018-09-03T05:48:36.514Z,99.99
2018-09-03T05:49:17.026Z,99.99
2018-09-03T05:49:57.556Z,99.99
2018-09-03T05:50:38.086Z,99.99
2018-09-03T05:51:18.647Z,99.99
2018-09-03T05:51:59.121Z,99.99
2018-09-03T05:52:39.684Z,99.99
2018-09-03T05:53:20.217Z,99.99
2018-09-03T05:54:00.738Z,99.99
2018-09-03T05:54:41.252Z,99.99
2018-09-03T05:55:21.786Z,99.99
2018-09-03T05:56:02.301Z,99.99
2018-09-03T05:56:42.845Z,99.99
2018-09-03T05:57:23.376Z,99.99
2018-09-03T05:58:03.901Z,99.99
2018-09-03T05:58:44.428Z,99.99
2018-09-03T05:59:24.941Z,99.99
2018-09-03T06:00:05.463Z,99.99
2018-09-03T06:00:45.987Z,99.99
2018-09-03T06:01:26.618Z,99.99
2018-09-03T06:02:07.260Z,99.99
2018-09-03T06:02:47.813Z,99.99
2018-09-03T06:03:28.330Z,99.99
2018-09-03T06:04:08.840Z,99.99
2018-09-03T06:04:49.428Z,99.99
2018-09-03T06:05:29.929Z,99.99
2018-09-03T06:06:10.468Z,99.99
2018-09-03T06:06:50.988Z,99.99
2018-09-03T06:07:31.535Z,99.99
2018-09-03T06:08:12.031Z,99.99
2018-09-03T06:08:52.541Z,99.99
2018-09-03T06:09:33.060Z,99.99
2018-09-03T06:10:13.572Z,99.99
2018-09-03T06:10:54.090Z,99.99
2018-09-03T06:11:34.772Z,99.99
2018-09-03T06:12:15.150Z,99.99
2018-09-03T06:12:55.665Z,99.99
2018-09-03T06:13:36.205Z,99.99
2018-09-03T06:14:16.728Z,99.99
2018-09-03T06:14:57.243Z,99.99
2018-09-03T06:15:37.758Z,99.99
2018-09-03T06:16:18.275Z,99.99
2018-09-03T06:16:58.794Z,99.99
2018-09-03T06:17:39.955Z,99.99
2018-09-03T06:18:19.895Z,99.99
2018-09-03T06:19:00.433Z,99.99
2018-09-03T06:19:40.948Z,99.99
2018-09-03T06:20:21.464Z,99.99
2018-09-03T06:21:02.081Z,99.99
2018-09-03T06:21:42.600Z,99.99
2018-09-03T06:22:23.159Z,99.99
2018-09-03T06:23:03.686Z,99.99
2018-09-03T06:23:44.216Z,99.99
2018-09-03T06:24:24.741Z,99.99
2018-09-03T06:25:05.261Z,99.99
2018-09-03T06:25:45.776Z,99.99
2018-09-03T06:26:26.303Z,99.99
2018-09-03T06:27:06.822Z,99.99
2018-09-03T06:27:47.345Z,99.99
2018-09-03T06:28:27.880Z,99.99
2018-09-03T06:29:08.577Z,99.99
2018-09-03T06:29:49.138Z,99.99
2018-09-03T06:30:29.659Z,99.99
2018-09-03T06:31:10.137Z,99.99
2018-09-03T06:31:50.656Z,99.99
2018-09-03T06:32:31.190Z,99.99
2018-09-03T06:33:11.717Z,99.99
2018-09-03T06:33:52.236Z,99.99
2018-09-03T06:34:33.119Z,99.99
2018-09-03T06:35:13.749Z,99.99
2018-09-03T06:35:54.338Z,99.99
2018-09-03T06:36:34.823Z,99.99
2018-09-03T06:37:15.365Z,99.99
2018-09-03T06:37:55.876Z,99.99
2018-09-03T06:38:36.395Z,99.99
2018-09-03T06:39:16.967Z,99.99
2018-09-03T06:39:57.433Z,99.99
2018-09-03T06:40:37.968Z,99.99
2018-09-03T06:41:18.481Z,99.99
2018-09-03T06:41:58.990Z,99.99
2018-09-03T06:42:39.477Z,99.99
2018-09-03T06:43:19.995Z,99.99
2018-09-03T06:44:00.516Z,99.99
2018-09-03T06:44:41.030Z,99.99
2018-09-03T06:45:21.542Z,99.99
2018-09-03T06:46:02.056Z,99.99
2018-09-03T06:46:42.580Z,99.99
2018-09-03T06:47:23.111Z,99.99
2018-09-03T06:48:03.628Z,99.99
2018-09-03T06:48:44.151Z,99.99
2018-09-03T06:49:24.680Z,99.99
2018-09-03T06:50:05.202Z,99.99
2018-09-03T06:50:45.732Z,99.99
2018-09-03T06:51:26.250Z,99.99
2018-09-03T06:52:06.778Z,99.99
2018-09-03T06:52:47.321Z,99.99
2018-09-03T06:53:27.869Z,99.99
2018-09-03T06:54:08.360Z,99.99
2018-09-03T06:54:48.888Z,99.99
2018-09-03T06:55:29.411Z,99.99
2018-09-03T06:56:09.923Z,99.99
2018-09-03T06:56:50.438Z,99.99
2018-09-03T06:57:30.954Z,99.99
2018-09-03T06:58:11.482Z,99.99
2018-09-03T06:58:51.995Z,99.99
2018-09-03T06:59:32.582Z,99.99
2018-09-03T07:00:13.044Z,99.99
2018-09-03T07:00:53.559Z,99.99
2018-09-03T07:01:34.079Z,99.99
2018-09-03T07:02:14.650Z,99.99
2018-09-03T07:02:55.188Z,99.99
2018-09-03T07:03:35.719Z,99.99
2018-09-03T07:04:16.261Z,99.99
2018-09-03T07:04:56.811Z,99.99
2018-09-03T07:05:37.329Z,99.99
2018-09-03T07:06:17.853Z,99.99
2018-09-03T07:06:58.372Z,99.99
2018-09-03T07:07:38.888Z,99.99
2018-09-03T07:08:19.434Z,99.99
2018-09-03T07:08:59.949Z,99.99
2018-09-03T07:09:40.463Z,99.99
2018-09-03T07:10:20.985Z,99.99
2018-09-03T07:11:01.511Z,99.99
2018-09-03T07:11:42.182Z,99.99
2018-09-03T07:12:22.729Z,99.99
2018-09-03T07:13:03.205Z,99.99
2018-09-03T07:13:43.724Z,99.99
2018-09-03T07:14:24.251Z,99.99
2018-09-03T07:15:04.759Z,99.99
2018-09-03T07:15:45.297Z,99.99
2018-09-03T07:16:25.818Z,99.99
2018-09-03T07:17:06.344Z,99.99
2018-09-03T07:17:46.867Z,99.99
2018-09-03T07:18:27.388Z,99.99
2018-09-03T07:19:07.902Z,99.99
2018-09-03T07:19:48.436Z,99.99
2018-09-03T07:20:28.963Z,99.99
2018-09-03T07:21:09.481Z,99.99
2018-09-03T07:21:49.997Z,99.99
2018-09-03T07:22:30.517Z,99.99
2018-09-03T07:23:11.052Z,99.99
2018-09-03T07:23:51.552Z,99.99
2018-09-03T07:24:32.084Z,99.99
2018-09-03T07:25:12.582Z,99.99
2018-09-03T07:25:53.112Z,99.99
2018-09-03T07:26:33.678Z,99.99
2018-09-03T07:27:14.207Z,99.99
2018-09-03T07:27:54.719Z,99.99
2018-09-03T07:28:35.260Z,99.99
2018-09-03T07:29:15.762Z,99.99
2018-09-03T07:29:56.314Z,99.99
2018-09-03T07:30:36.814Z,99.99
2018-09-03T07:31:17.328Z,99.99
2018-09-03T07:31:57.838Z,99.99
2018-09-03T07:33:51.340Z,99.99
2018-09-03T07:34:31.973Z,99.99
2018-09-03T07:35:12.662Z,99.99
2018-09-03T07:35:53.339Z,99.99
2018-09-03T07:36:33.786Z,99.99
2018-09-03T07:38:47.076Z,99.99
2018-09-03T07:39:27.592Z,99.99
2018-09-03T07:40:08.092Z,99.84
2018-09-03T07:40:48.610Z,99.99
2018-09-03T07:41:29.122Z,99.99
2018-09-03T07:42:09.634Z,99.99
2018-09-03T07:42:50.265Z,99.99
2018-09-03T07:43:30.805Z,99.99
2018-09-03T07:44:11.411Z,99.99
2018-09-03T07:44:52.703Z,99.99
2018-09-03T07:45:32.765Z,99.99
2018-09-03T07:46:13.276Z,99.99
2018-09-03T07:46:53.804Z,99.99
2018-09-03T07:47:34.336Z,99.99
2018-09-03T07:48:14.842Z,99.99
2018-09-03T07:48:55.366Z,99.99
2018-09-03T07:49:35.899Z,99.99
2018-09-03T07:50:16.421Z,99.99
2018-09-03T07:50:56.994Z,99.99
2018-09-03T07:51:37.463Z,99.99
2018-09-03T07:52:17.986Z,99.99
2018-09-03T07:52:58.515Z,99.99
2018-09-03T07:53:39.049Z,99.99
2018-09-03T07:54:19.570Z,99.99
2018-09-03T07:55:00.105Z,99.99
2018-09-03T07:55:40.628Z,99.99
2018-09-03T07:56:21.249Z,99.99
2018-09-03T07:57:01.651Z,99.99
2018-09-03T07:57:42.169Z,99.99
2018-09-03T07:58:22.696Z,99.99
2018-09-03T07:59:03.206Z,99.99
2018-09-03T07:59:43.720Z,99.99
2018-09-03T08:00:24.231Z,99.99
2018-09-03T08:01:04.768Z,99.99
2018-09-03T08:01:45.271Z,99.99
2018-09-03T08:02:25.788Z,99.99
2018-09-03T08:03:06.307Z,99.99
2018-09-03T08:03:47.586Z,99.99
2018-09-03T08:04:28.140Z,99.99
2018-09-03T08:05:08.700Z,99.99
2018-09-03T08:05:49.219Z,99.99
2018-09-03T08:06:29.736Z,99.99
2018-09-03T08:07:10.275Z,99.99
2018-09-03T08:07:50.834Z,99.99
2018-09-03T08:08:31.350Z,99.99
2018-09-03T08:09:11.860Z,99.99
2018-09-03T08:09:52.597Z,99.99
2018-09-03T08:10:33.111Z,99.99
2018-09-03T08:11:13.634Z,99.99
2018-09-03T08:11:54.140Z,99.99
2018-09-03T08:12:34.654Z,99.99
2018-09-03T08:13:15.176Z,99.99
2018-09-03T08:13:55.759Z,99.99
2018-09-03T08:14:36.197Z,99.99
2018-09-03T08:15:16.722Z,99.99
2018-09-03T08:15:57.242Z,99.99
2018-09-03T08:16:37.764Z,99.99
2018-09-03T08:17:18.262Z,99.99
2018-09-03T08:17:58.800Z,99.99
2018-09-03T08:19:52.045Z,99.99
2018-09-03T08:20:32.543Z,98.68
2018-09-03T08:21:13.036Z,97.81
2018-09-03T08:21:53.675Z,95.88
2018-09-03T08:22:34.343Z,95.79
2018-09-03T08:23:14.863Z,96.08
2018-09-03T08:23:55.381Z,95.88
2018-09-03T08:24:35.947Z,94.43
2018-09-03T08:25:16.460Z,94.92
2018-09-03T08:25:56.977Z,95.4
2018-09-03T08:26:37.489Z,96.75
2018-09-03T08:27:18.013Z,98.39
2018-09-03T08:27:58.535Z,95.59
2018-09-03T08:28:39.064Z,94.34
2018-09-03T08:29:19.587Z,93.57
2018-09-03T08:30:00.107Z,93.37
2018-09-03T08:30:40.608Z,94.15
2018-09-03T08:31:21.130Z,94.43
2018-09-03T08:32:01.636Z,96.46
2018-09-03T08:32:42.163Z,95.4
2018-09-03T08:33:22.679Z,96.27
2018-09-03T08:34:03.243Z,98
2018-09-03T08:34:43.802Z,99.99
2018-09-03T08:35:25.113Z,99.99
2018-09-03T08:36:04.918Z,99.99
2018-09-03T08:36:45.446Z,98.78
2018-09-03T08:37:26.028Z,96.66
2018-09-03T08:38:06.568Z,96.56
2018-09-03T08:38:47.089Z,98.49
2018-09-03T08:39:27.619Z,96.36
2018-09-03T08:40:08.120Z,95.35
2018-09-03T08:40:48.660Z,96.17
2018-09-03T08:41:29.338Z,98.97
2018-09-03T08:42:09.753Z,99.55
2018-09-03T08:44:08.030Z,96.94
2018-09-03T08:44:48.571Z,94.63
2018-09-03T08:45:29.128Z,93.32
2018-09-03T08:46:09.643Z,96.17
2018-09-03T08:46:50.197Z,99.99
2018-09-03T08:47:30.845Z,99.99
2018-09-03T08:48:11.368Z,97.86
2018-09-03T08:48:51.885Z,94.68
2018-09-03T08:49:32.409Z,93.66
2018-09-03T08:50:12.974Z,94.24
2018-09-03T08:50:53.461Z,93.95
2018-09-03T08:51:33.979Z,94.82
2018-09-03T08:52:14.508Z,91.93